sensor_id;sensor_type;location;lat;lon;timestamp;P1;durP1;ratioP1;P2;durP2;ratioP2
10299;SDS011;5195;48.562;9.192;2023-04-22T00:00:36;5.80;;;5.50;;
10299;SDS011;5195;48.562;9.192;2023-04-22T00:03:01;5.62;;;5.32;;
10299;SDS011;5195;48.562;9.192;2023-04-22T00:05:27;5.73;;;5.40;;
10299;SDS011;5195;48.562;9.192;2023-04-22T00:07:52;5.37;;;4.97;;
10299;SDS011;5195;48.562;9.192;2023-04-22T00:10:19;5.20;;;4.90;;
10299;SDS011;5195;48.562;9.192;2023-04-22T00:12:44;5.23;;;4.83;;
10299;SDS011;5195;48.562;9.192;2023-04-22T00:15:10;5.80;;;5.50;;
10299;SDS011;5195;48.562;9.192;2023-04-22T00:17:36;5.50;;;5.10;;
10299;SDS011;5195;48.562;9.192;2023-04-22T00:20:01;5.50;;;5.20;;
10299;SDS011;5195;48.562;9.192;2023-04-22T00:22:28;5.47;;;5.17;;
10299;SDS011;5195;48.562;9.192;2023-04-22T00:24:54;5.93;;;5.50;;
10299;SDS011;5195;48.562;9.192;2023-04-22T00:27:21;5.85;;;5.45;;
10299;SDS011;5195;48.562;9.192;2023-04-22T00:29:46;5.53;;;5.12;;
10299;SDS011;5195;48.562;9.192;2023-04-22T00:32:12;5.27;;;4.97;;
10299;SDS011;5195;48.562;9.192;2023-04-22T00:34:39;5.60;;;5.30;;
10299;SDS011;5195;48.562;9.192;2023-04-22T00:37:05;5.10;;;4.67;;
10299;SDS011;5195;48.562;9.192;2023-04-22T00:39:30;5.60;;;5.20;;
10299;SDS011;5195;48.562;9.192;2023-04-22T00:41:56;5.50;;;5.20;;
10299;SDS011;5195;48.562;9.192;2023-04-22T00:44:22;4.60;;;4.37;;
10299;SDS011;5195;48.562;9.192;2023-04-22T00:46:48;5.18;;;4.87;;
10299;SDS011;5195;48.562;9.192;2023-04-22T00:49:13;5.60;;;5.20;;
10299;SDS011;5195;48.562;9.192;2023-04-22T00:51:40;5.70;;;5.20;;
10299;SDS011;5195;48.562;9.192;2023-04-22T00:54:05;4.67;;;4.37;;
10299;SDS011;5195;48.562;9.192;2023-04-22T00:56:31;5.25;;;4.95;;
10299;SDS011;5195;48.562;9.192;2023-04-22T00:58:56;5.17;;;4.77;;
10299;SDS011;5195;48.562;9.192;2023-04-22T01:01:23;4.60;;;4.30;;
10299;SDS011;5195;48.562;9.192;2023-04-22T01:03:48;4.72;;;4.43;;
10299;SDS011;5195;48.562;9.192;2023-04-22T01:06:16;4.63;;;4.23;;
10299;SDS011;5195;48.562;9.192;2023-04-22T01:08:40;5.12;;;4.82;;
10299;SDS011;5195;48.562;9.192;2023-04-22T01:11:06;4.93;;;4.63;;
10299;SDS011;5195;48.562;9.192;2023-04-22T01:13:31;4.50;;;4.23;;
10299;SDS011;5195;48.562;9.192;2023-04-22T01:15:58;4.17;;;3.90;;
10299;SDS011;5195;48.562;9.192;2023-04-22T01:18:24;4.30;;;4.10;;
10299;SDS011;5195;48.562;9.192;2023-04-22T01:20:49;4.23;;;3.90;;
10299;SDS011;5195;48.562;9.192;2023-04-22T01:23:19;4.37;;;4.07;;
10299;SDS011;5195;48.562;9.192;2023-04-22T01:25:47;4.00;;;3.80;;
10299;SDS011;5195;48.562;9.192;2023-04-22T01:28:13;4.32;;;4.03;;
10299;SDS011;5195;48.562;9.192;2023-04-22T01:30:39;3.47;;;3.20;;
10299;SDS011;5195;48.562;9.192;2023-04-22T01:33:05;3.67;;;3.47;;
10299;SDS011;5195;48.562;9.192;2023-04-22T01:35:30;3.70;;;3.50;;
10299;SDS011;5195;48.562;9.192;2023-04-22T01:37:56;3.60;;;3.37;;
10299;SDS011;5195;48.562;9.192;2023-04-22T01:40:21;3.63;;;3.33;;
10299;SDS011;5195;48.562;9.192;2023-04-22T01:42:47;3.30;;;3.10;;
10299;SDS011;5195;48.562;9.192;2023-04-22T01:45:12;3.27;;;2.97;;
10299;SDS011;5195;48.562;9.192;2023-04-22T01:47:39;3.30;;;3.10;;
10299;SDS011;5195;48.562;9.192;2023-04-22T01:50:04;4.80;;;3.23;;
10299;SDS011;5195;48.562;9.192;2023-04-22T01:52:31;3.40;;;3.10;;
10299;SDS011;5195;48.562;9.192;2023-04-22T01:54:56;3.30;;;3.10;;
10299;SDS011;5195;48.562;9.192;2023-04-22T01:57:22;3.55;;;3.25;;
10299;SDS011;5195;48.562;9.192;2023-04-22T01:59:48;3.45;;;3.15;;
10299;SDS011;5195;48.562;9.192;2023-04-22T02:02:14;3.75;;;3.55;;
10299;SDS011;5195;48.562;9.192;2023-04-22T02:04:39;3.47;;;3.28;;
10299;SDS011;5195;48.562;9.192;2023-04-22T02:07:05;3.00;;;2.90;;
10299;SDS011;5195;48.562;9.192;2023-04-22T02:09:31;3.08;;;2.87;;
10299;SDS011;5195;48.562;9.192;2023-04-22T02:11:56;3.40;;;3.20;;
10299;SDS011;5195;48.562;9.192;2023-04-22T02:14:22;3.33;;;3.12;;
10299;SDS011;5195;48.562;9.192;2023-04-22T02:16:47;3.20;;;2.90;;
10299;SDS011;5195;48.562;9.192;2023-04-22T02:19:13;3.40;;;3.20;;
10299;SDS011;5195;48.562;9.192;2023-04-22T02:21:38;3.40;;;3.20;;
10299;SDS011;5195;48.562;9.192;2023-04-22T02:24:04;3.70;;;3.40;;
10299;SDS011;5195;48.562;9.192;2023-04-22T02:26:30;3.77;;;3.43;;
10299;SDS011;5195;48.562;9.192;2023-04-22T02:28:55;3.45;;;3.25;;
10299;SDS011;5195;48.562;9.192;2023-04-22T02:31:21;3.30;;;3.10;;
10299;SDS011;5195;48.562;9.192;2023-04-22T02:33:46;3.60;;;3.40;;
10299;SDS011;5195;48.562;9.192;2023-04-22T02:36:12;3.13;;;2.97;;
10299;SDS011;5195;48.562;9.192;2023-04-22T02:38:38;3.47;;;3.17;;
10299;SDS011;5195;48.562;9.192;2023-04-22T02:41:04;4.03;;;2.97;;
10299;SDS011;5195;48.562;9.192;2023-04-22T02:43:30;4.20;;;3.37;;
10299;SDS011;5195;48.562;9.192;2023-04-22T02:45:56;3.70;;;3.50;;
10299;SDS011;5195;48.562;9.192;2023-04-22T02:48:22;3.60;;;3.40;;
10299;SDS011;5195;48.562;9.192;2023-04-22T02:50:49;3.78;;;3.50;;
10299;SDS011;5195;48.562;9.192;2023-04-22T02:53:14;3.53;;;3.33;;
10299;SDS011;5195;48.562;9.192;2023-04-22T02:55:40;3.90;;;3.60;;
10299;SDS011;5195;48.562;9.192;2023-04-22T02:58:06;3.40;;;3.20;;
10299;SDS011;5195;48.562;9.192;2023-04-22T03:00:31;3.58;;;3.30;;
10299;SDS011;5195;48.562;9.192;2023-04-22T03:02:58;3.50;;;3.30;;
10299;SDS011;5195;48.562;9.192;2023-04-22T03:05:23;3.50;;;3.30;;
10299;SDS011;5195;48.562;9.192;2023-04-22T03:07:49;4.40;;;4.00;;
10299;SDS011;5195;48.562;9.192;2023-04-22T03:10:14;4.97;;;3.83;;
10299;SDS011;5195;48.562;9.192;2023-04-22T03:12:40;6.63;;;5.90;;
10299;SDS011;5195;48.562;9.192;2023-04-22T03:15:06;9.75;;;8.95;;
10299;SDS011;5195;48.562;9.192;2023-04-22T03:17:31;4.37;;;4.07;;
10299;SDS011;5195;48.562;9.192;2023-04-22T03:19:57;4.80;;;4.50;;
10299;SDS011;5195;48.562;9.192;2023-04-22T03:22:23;4.90;;;4.37;;
10299;SDS011;5195;48.562;9.192;2023-04-22T03:24:49;4.70;;;4.40;;
10299;SDS011;5195;48.562;9.192;2023-04-22T03:27:14;5.00;;;4.70;;
10299;SDS011;5195;48.562;9.192;2023-04-22T03:29:40;5.13;;;4.67;;
10299;SDS011;5195;48.562;9.192;2023-04-22T03:32:05;5.03;;;4.72;;
10299;SDS011;5195;48.562;9.192;2023-04-22T03:34:31;4.57;;;4.20;;
10299;SDS011;5195;48.562;9.192;2023-04-22T03:36:58;5.00;;;4.60;;
10299;SDS011;5195;48.562;9.192;2023-04-22T03:39:23;5.30;;;4.90;;
10299;SDS011;5195;48.562;9.192;2023-04-22T03:41:49;4.63;;;4.03;;
10299;SDS011;5195;48.562;9.192;2023-04-22T03:44:14;4.43;;;4.12;;
10299;SDS011;5195;48.562;9.192;2023-04-22T03:46:40;4.93;;;4.63;;
10299;SDS011;5195;48.562;9.192;2023-04-22T03:49:06;4.53;;;4.22;;
10299;SDS011;5195;48.562;9.192;2023-04-22T03:51:32;4.87;;;4.30;;
10299;SDS011;5195;48.562;9.192;2023-04-22T03:53:58;4.87;;;4.47;;
10299;SDS011;5195;48.562;9.192;2023-04-22T03:56:24;4.75;;;4.40;;
10299;SDS011;5195;48.562;9.192;2023-04-22T03:58:50;4.90;;;4.60;;
10299;SDS011;5195;48.562;9.192;2023-04-22T04:01:16;4.87;;;4.57;;
10299;SDS011;5195;48.562;9.192;2023-04-22T04:03:41;5.15;;;4.78;;
10299;SDS011;5195;48.562;9.192;2023-04-22T04:06:08;4.70;;;4.30;;
10299;SDS011;5195;48.562;9.192;2023-04-22T04:08:33;4.63;;;4.30;;
10299;SDS011;5195;48.562;9.192;2023-04-22T04:10:59;4.87;;;4.57;;
10299;SDS011;5195;48.562;9.192;2023-04-22T04:13:24;4.57;;;4.27;;
10299;SDS011;5195;48.562;9.192;2023-04-22T04:15:51;5.13;;;4.73;;
10299;SDS011;5195;48.562;9.192;2023-04-22T04:18:16;5.20;;;4.60;;
10299;SDS011;5195;48.562;9.192;2023-04-22T04:20:42;5.07;;;4.67;;
10299;SDS011;5195;48.562;9.192;2023-04-22T04:23:07;4.97;;;4.67;;
10299;SDS011;5195;48.562;9.192;2023-04-22T04:25:33;4.80;;;4.60;;
10299;SDS011;5195;48.562;9.192;2023-04-22T04:28:06;4.30;;;4.10;;
10299;SDS011;5195;48.562;9.192;2023-04-22T04:30:31;4.43;;;4.20;;
10299;SDS011;5195;48.562;9.192;2023-04-22T04:32:57;4.73;;;4.43;;
10299;SDS011;5195;48.562;9.192;2023-04-22T04:35:23;5.37;;;5.00;;
10299;SDS011;5195;48.562;9.192;2023-04-22T04:37:49;4.93;;;4.53;;
10299;SDS011;5195;48.562;9.192;2023-04-22T04:40:14;4.93;;;4.62;;
10299;SDS011;5195;48.562;9.192;2023-04-22T04:42:40;4.65;;;4.40;;
10299;SDS011;5195;48.562;9.192;2023-04-22T04:45:05;5.13;;;4.73;;
10299;SDS011;5195;48.562;9.192;2023-04-22T04:47:31;4.57;;;4.27;;
10299;SDS011;5195;48.562;9.192;2023-04-22T04:49:57;5.77;;;5.37;;
10299;SDS011;5195;48.562;9.192;2023-04-22T04:52:22;5.17;;;4.87;;
10299;SDS011;5195;48.562;9.192;2023-04-22T04:54:48;5.47;;;4.97;;
10299;SDS011;5195;48.562;9.192;2023-04-22T04:57:14;5.20;;;4.70;;
10299;SDS011;5195;48.562;9.192;2023-04-22T04:59:39;5.07;;;4.77;;
10299;SDS011;5195;48.562;9.192;2023-04-22T05:02:05;5.37;;;4.97;;
10299;SDS011;5195;48.562;9.192;2023-04-22T05:04:30;4.73;;;4.43;;
10299;SDS011;5195;48.562;9.192;2023-04-22T05:06:56;5.47;;;5.17;;
10299;SDS011;5195;48.562;9.192;2023-04-22T05:09:22;5.40;;;5.00;;
10299;SDS011;5195;48.562;9.192;2023-04-22T05:11:48;5.10;;;4.80;;
10299;SDS011;5195;48.562;9.192;2023-04-22T05:14:14;5.20;;;4.80;;
10299;SDS011;5195;48.562;9.192;2023-04-22T05:16:39;5.17;;;4.77;;
10299;SDS011;5195;48.562;9.192;2023-04-22T05:19:05;5.10;;;4.77;;
10299;SDS011;5195;48.562;9.192;2023-04-22T05:21:31;5.12;;;4.72;;
10299;SDS011;5195;48.562;9.192;2023-04-22T05:23:57;6.07;;;4.10;;
10299;SDS011;5195;48.562;9.192;2023-04-22T05:26:22;6.23;;;4.47;;
10299;SDS011;5195;48.562;9.192;2023-04-22T05:28:48;4.67;;;4.37;;
10299;SDS011;5195;48.562;9.192;2023-04-22T05:31:14;4.93;;;4.53;;
10299;SDS011;5195;48.562;9.192;2023-04-22T05:33:41;5.27;;;4.90;;
10299;SDS011;5195;48.562;9.192;2023-04-22T05:36:06;5.30;;;4.80;;
10299;SDS011;5195;48.562;9.192;2023-04-22T05:38:32;4.60;;;4.30;;
10299;SDS011;5195;48.562;9.192;2023-04-22T05:40:59;4.57;;;4.27;;
10299;SDS011;5195;48.562;9.192;2023-04-22T05:43:24;5.07;;;4.68;;
10299;SDS011;5195;48.562;9.192;2023-04-22T05:45:51;5.27;;;4.77;;
10299;SDS011;5195;48.562;9.192;2023-04-22T05:48:16;5.03;;;4.72;;
10299;SDS011;5195;48.562;9.192;2023-04-22T05:50:42;4.63;;;4.33;;
10299;SDS011;5195;48.562;9.192;2023-04-22T05:53:07;4.77;;;4.47;;
10299;SDS011;5195;48.562;9.192;2023-04-22T05:55:33;4.30;;;4.00;;
10299;SDS011;5195;48.562;9.192;2023-04-22T05:57:58;4.80;;;4.40;;
10299;SDS011;5195;48.562;9.192;2023-04-22T06:00:24;3.87;;;3.67;;
10299;SDS011;5195;48.562;9.192;2023-04-22T06:02:50;3.93;;;3.73;;
10299;SDS011;5195;48.562;9.192;2023-04-22T06:05:16;4.63;;;4.17;;
10299;SDS011;5195;48.562;9.192;2023-04-22T06:07:41;4.55;;;4.15;;
10299;SDS011;5195;48.562;9.192;2023-04-22T06:10:07;4.53;;;4.13;;
10299;SDS011;5195;48.562;9.192;2023-04-22T06:12:33;4.60;;;4.20;;
10299;SDS011;5195;48.562;9.192;2023-04-22T06:14:58;5.03;;;4.50;;
10299;SDS011;5195;48.562;9.192;2023-04-22T06:17:25;4.60;;;4.20;;
10299;SDS011;5195;48.562;9.192;2023-04-22T06:19:50;4.43;;;4.10;;
10299;SDS011;5195;48.562;9.192;2023-04-22T06:22:17;3.83;;;3.63;;
10299;SDS011;5195;48.562;9.192;2023-04-22T06:24:42;4.07;;;3.70;;
10299;SDS011;5195;48.562;9.192;2023-04-22T06:27:08;4.20;;;3.90;;
10299;SDS011;5195;48.562;9.192;2023-04-22T06:29:35;4.50;;;4.20;;
10299;SDS011;5195;48.562;9.192;2023-04-22T06:32:00;4.37;;;3.90;;
10299;SDS011;5195;48.562;9.192;2023-04-22T06:34:26;5.00;;;4.40;;
10299;SDS011;5195;48.562;9.192;2023-04-22T06:36:52;3.87;;;3.67;;
10299;SDS011;5195;48.562;9.192;2023-04-22T06:39:17;19.80;;;17.27;;
10299;SDS011;5195;48.562;9.192;2023-04-22T06:41:43;13.95;;;12.52;;
10299;SDS011;5195;48.562;9.192;2023-04-22T06:44:09;7.60;;;7.00;;
10299;SDS011;5195;48.562;9.192;2023-04-22T06:46:35;7.77;;;7.17;;
10299;SDS011;5195;48.562;9.192;2023-04-22T06:49:00;5.40;;;5.10;;
10299;SDS011;5195;48.562;9.192;2023-04-22T06:51:26;6.40;;;5.90;;
10299;SDS011;5195;48.562;9.192;2023-04-22T06:53:51;4.60;;;4.30;;
10299;SDS011;5195;48.562;9.192;2023-04-22T06:56:17;4.90;;;4.50;;
10299;SDS011;5195;48.562;9.192;2023-04-22T06:58:43;4.60;;;4.30;;
10299;SDS011;5195;48.562;9.192;2023-04-22T07:01:08;4.05;;;3.85;;
10299;SDS011;5195;48.562;9.192;2023-04-22T07:03:34;4.00;;;3.75;;
10299;SDS011;5195;48.562;9.192;2023-04-22T07:05:59;4.47;;;4.07;;
10299;SDS011;5195;48.562;9.192;2023-04-22T07:08:25;4.43;;;4.12;;
10299;SDS011;5195;48.562;9.192;2023-04-22T07:10:51;4.30;;;3.97;;
10299;SDS011;5195;48.562;9.192;2023-04-22T07:13:17;7.05;;;6.53;;
10299;SDS011;5195;48.562;9.192;2023-04-22T07:15:43;4.80;;;4.40;;
10299;SDS011;5195;48.562;9.192;2023-04-22T07:18:08;8.03;;;7.43;;
10299;SDS011;5195;48.562;9.192;2023-04-22T07:20:35;8.40;;;7.62;;
10299;SDS011;5195;48.562;9.192;2023-04-22T07:23:00;4.33;;;4.03;;
10299;SDS011;5195;48.562;9.192;2023-04-22T07:25:26;7.30;;;6.68;;
10299;SDS011;5195;48.562;9.192;2023-04-22T07:27:51;7.40;;;6.85;;
10299;SDS011;5195;48.562;9.192;2023-04-22T07:30:17;6.70;;;6.10;;
10299;SDS011;5195;48.562;9.192;2023-04-22T07:32:42;4.57;;;4.20;;
10299;SDS011;5195;48.562;9.192;2023-04-22T07:35:08;4.30;;;3.90;;
10299;SDS011;5195;48.562;9.192;2023-04-22T07:37:34;5.17;;;4.47;;
10299;SDS011;5195;48.562;9.192;2023-04-22T07:40:00;5.47;;;3.83;;
10299;SDS011;5195;48.562;9.192;2023-04-22T07:42:25;4.37;;;3.97;;
10299;SDS011;5195;48.562;9.192;2023-04-22T07:44:52;4.37;;;4.07;;
10299;SDS011;5195;48.562;9.192;2023-04-22T07:47:17;4.27;;;3.97;;
10299;SDS011;5195;48.562;9.192;2023-04-22T07:49:43;4.07;;;3.78;;
10299;SDS011;5195;48.562;9.192;2023-04-22T07:52:08;4.10;;;3.65;;
10299;SDS011;5195;48.562;9.192;2023-04-22T07:54:34;5.68;;;5.20;;
10299;SDS011;5195;48.562;9.192;2023-04-22T07:57:00;4.43;;;4.10;;
10299;SDS011;5195;48.562;9.192;2023-04-22T07:59:26;5.23;;;4.83;;
10299;SDS011;5195;48.562;9.192;2023-04-22T08:01:52;7.00;;;6.45;;
10299;SDS011;5195;48.562;9.192;2023-04-22T08:06:43;4.87;;;4.47;;
10299;SDS011;5195;48.562;9.192;2023-04-22T08:09:09;5.90;;;5.37;;
10299;SDS011;5195;48.562;9.192;2023-04-22T08:11:35;4.90;;;4.60;;
10299;SDS011;5195;48.562;9.192;2023-04-22T08:14:00;4.20;;;3.90;;
10299;SDS011;5195;48.562;9.192;2023-04-22T08:16:27;4.20;;;3.90;;
10299;SDS011;5195;48.562;9.192;2023-04-22T08:18:52;4.67;;;3.30;;
10299;SDS011;5195;48.562;9.192;2023-04-22T08:21:18;4.37;;;4.07;;
10299;SDS011;5195;48.562;9.192;2023-04-22T08:23:44;6.87;;;3.43;;
10299;SDS011;5195;48.562;9.192;2023-04-22T08:26:10;4.53;;;4.20;;
10299;SDS011;5195;48.562;9.192;2023-04-22T08:28:35;3.30;;;3.20;;
10299;SDS011;5195;48.562;9.192;2023-04-22T08:31:01;3.87;;;3.57;;
10299;SDS011;5195;48.562;9.192;2023-04-22T08:33:27;5.45;;;5.05;;
10299;SDS011;5195;48.562;9.192;2023-04-22T08:35:53;2.97;;;2.87;;
10299;SDS011;5195;48.562;9.192;2023-04-22T08:38:18;3.57;;;3.37;;
10299;SDS011;5195;48.562;9.192;2023-04-22T08:40:44;2.80;;;2.62;;
10299;SDS011;5195;48.562;9.192;2023-04-22T08:43:10;2.83;;;2.62;;
10299;SDS011;5195;48.562;9.192;2023-04-22T08:45:39;3.50;;;2.33;;
10299;SDS011;5195;48.562;9.192;2023-04-22T08:48:06;2.80;;;2.60;;
10299;SDS011;5195;48.562;9.192;2023-04-22T08:50:31;2.90;;;2.80;;
10299;SDS011;5195;48.562;9.192;2023-04-22T08:52:56;2.92;;;2.70;;
10299;SDS011;5195;48.562;9.192;2023-04-22T08:55:23;3.00;;;2.80;;
10299;SDS011;5195;48.562;9.192;2023-04-22T08:57:48;2.70;;;2.50;;
10299;SDS011;5195;48.562;9.192;2023-04-22T09:00:15;3.00;;;2.80;;
10299;SDS011;5195;48.562;9.192;2023-04-22T09:02:40;2.70;;;2.60;;
10299;SDS011;5195;48.562;9.192;2023-04-22T09:05:06;2.53;;;2.33;;
10299;SDS011;5195;48.562;9.192;2023-04-22T09:07:34;2.67;;;2.23;;
10299;SDS011;5195;48.562;9.192;2023-04-22T09:10:00;2.28;;;2.17;;
10299;SDS011;5195;48.562;9.192;2023-04-22T09:12:25;2.20;;;2.00;;
10299;SDS011;5195;48.562;9.192;2023-04-22T09:14:51;1.77;;;1.62;;
10299;SDS011;5195;48.562;9.192;2023-04-22T09:17:17;2.00;;;1.75;;
10299;SDS011;5195;48.562;9.192;2023-04-22T09:19:45;2.00;;;1.90;;
10299;SDS011;5195;48.562;9.192;2023-04-22T09:22:11;2.30;;;2.10;;
10299;SDS011;5195;48.562;9.192;2023-04-22T09:24:36;2.00;;;1.90;;
10299;SDS011;5195;48.562;9.192;2023-04-22T09:27:02;2.00;;;1.90;;
10299;SDS011;5195;48.562;9.192;2023-04-22T09:29:29;2.40;;;1.93;;
10299;SDS011;5195;48.562;9.192;2023-04-22T09:31:55;2.40;;;2.20;;
10299;SDS011;5195;48.562;9.192;2023-04-22T09:34:21;2.10;;;2.00;;
10299;SDS011;5195;48.562;9.192;2023-04-22T09:36:49;2.40;;;2.20;;
10299;SDS011;5195;48.562;9.192;2023-04-22T09:39:13;2.00;;;1.90;;
10299;SDS011;5195;48.562;9.192;2023-04-22T09:41:39;2.83;;;1.90;;
10299;SDS011;5195;48.562;9.192;2023-04-22T09:44:25;2.10;;;1.90;;
10299;SDS011;5195;48.562;9.192;2023-04-22T09:46:34;2.00;;;1.90;;
10299;SDS011;5195;48.562;9.192;2023-04-22T09:49:00;1.57;;;1.53;;
10299;SDS011;5195;48.562;9.192;2023-04-22T09:51:25;1.80;;;1.70;;
10299;SDS011;5195;48.562;9.192;2023-04-22T09:54:04;2.03;;;1.93;;
10299;SDS011;5195;48.562;9.192;2023-04-22T09:59:26;3.07;;;2.40;;
10299;SDS011;5195;48.562;9.192;2023-04-22T10:01:51;1.80;;;1.70;;
10299;SDS011;5195;48.562;9.192;2023-04-22T10:04:16;2.70;;;2.00;;
10299;SDS011;5195;48.562;9.192;2023-04-22T10:06:44;1.30;;;1.20;;
10299;SDS011;5195;48.562;9.192;2023-04-22T10:09:09;1.40;;;1.37;;
10299;SDS011;5195;48.562;9.192;2023-04-22T10:11:35;1.30;;;1.30;;
10299;SDS011;5195;48.562;9.192;2023-04-22T10:14:01;1.50;;;1.50;;
10299;SDS011;5195;48.562;9.192;2023-04-22T10:16:27;1.60;;;1.50;;
10299;SDS011;5195;48.562;9.192;2023-04-22T10:18:52;2.00;;;1.30;;
10299;SDS011;5195;48.562;9.192;2023-04-22T10:21:19;1.50;;;1.40;;
10299;SDS011;5195;48.562;9.192;2023-04-22T10:23:45;2.17;;;1.60;;
10299;SDS011;5195;48.562;9.192;2023-04-22T10:26:10;1.90;;;1.40;;
10299;SDS011;5195;48.562;9.192;2023-04-22T10:28:40;1.37;;;1.37;;
10299;SDS011;5195;48.562;9.192;2023-04-22T10:31:05;1.57;;;1.47;;
10299;SDS011;5195;48.562;9.192;2023-04-22T10:41:15;1.90;;;1.65;;
10299;SDS011;5195;48.562;9.192;2023-04-22T10:48:58;1.90;;;1.50;;
10299;SDS011;5195;48.562;9.192;2023-04-22T10:51:40;1.60;;;1.50;;
10299;SDS011;5195;48.562;9.192;2023-04-22T10:59:47;18.23;;;3.33;;
10299;SDS011;5195;48.562;9.192;2023-04-22T11:02:12;1.60;;;1.50;;
10299;SDS011;5195;48.562;9.192;2023-04-22T11:04:38;1.70;;;1.60;;
10299;SDS011;5195;48.562;9.192;2023-04-22T11:09:47;1.83;;;1.50;;
10299;SDS011;5195;48.562;9.192;2023-04-22T11:15:03;1.83;;;1.58;;
10299;SDS011;5195;48.562;9.192;2023-04-22T11:17:26;1.50;;;1.40;;
10299;SDS011;5195;48.562;9.192;2023-04-22T11:19:51;3.50;;;1.90;;
10299;SDS011;5195;48.562;9.192;2023-04-22T11:22:17;1.60;;;1.50;;
10299;SDS011;5195;48.562;9.192;2023-04-22T11:24:52;3.70;;;1.50;;
10299;SDS011;5195;48.562;9.192;2023-04-22T11:27:08;11.67;;;1.93;;
10299;SDS011;5195;48.562;9.192;2023-04-22T11:29:34;5.97;;;2.43;;
10299;SDS011;5195;48.562;9.192;2023-04-22T11:32:00;2.15;;;1.80;;
10299;SDS011;5195;48.562;9.192;2023-04-22T11:34:25;1.95;;;1.85;;
10299;SDS011;5195;48.562;9.192;2023-04-22T11:36:51;7.40;;;6.83;;
10299;SDS011;5195;48.562;9.192;2023-04-22T11:39:16;5.93;;;5.27;;
10299;SDS011;5195;48.562;9.192;2023-04-22T11:41:43;2.57;;;2.40;;
10299;SDS011;5195;48.562;9.192;2023-04-22T11:44:11;2.30;;;1.75;;
10299;SDS011;5195;48.562;9.192;2023-04-22T11:46:36;2.08;;;1.70;;
10299;SDS011;5195;48.562;9.192;2023-04-22T11:49:14;4.50;;;1.60;;
10299;SDS011;5195;48.562;9.192;2023-04-22T11:51:50;2.10;;;2.00;;
10299;SDS011;5195;48.562;9.192;2023-04-22T11:54:34;2.70;;;1.93;;
10299;SDS011;5195;48.562;9.192;2023-04-22T11:57:05;5.20;;;2.10;;
10299;SDS011;5195;48.562;9.192;2023-04-22T11:59:30;2.73;;;1.80;;
10299;SDS011;5195;48.562;9.192;2023-04-22T12:01:56;2.20;;;2.10;;
10299;SDS011;5195;48.562;9.192;2023-04-22T12:04:21;2.20;;;2.00;;
10299;SDS011;5195;48.562;9.192;2023-04-22T12:06:48;1.90;;;1.80;;
10299;SDS011;5195;48.562;9.192;2023-04-22T12:09:13;2.20;;;2.00;;
10299;SDS011;5195;48.562;9.192;2023-04-22T12:11:39;4.13;;;1.93;;
10299;SDS011;5195;48.562;9.192;2023-04-22T12:14:06;2.20;;;2.00;;
10299;SDS011;5195;48.562;9.192;2023-04-22T12:16:41;3.20;;;2.50;;
10299;SDS011;5195;48.562;9.192;2023-04-22T12:19:06;1.80;;;1.70;;
10299;SDS011;5195;48.562;9.192;2023-04-22T12:21:32;1.87;;;1.77;;
10299;SDS011;5195;48.562;9.192;2023-04-22T12:23:59;2.40;;;2.00;;
10299;SDS011;5195;48.562;9.192;2023-04-22T12:26:25;2.60;;;1.87;;
10299;SDS011;5195;48.562;9.192;2023-04-22T12:28:53;2.00;;;1.90;;
10299;SDS011;5195;48.562;9.192;2023-04-22T12:31:21;2.50;;;2.30;;
10299;SDS011;5195;48.562;9.192;2023-04-22T12:33:47;2.73;;;2.27;;
10299;SDS011;5195;48.562;9.192;2023-04-22T12:36:13;2.20;;;2.00;;
10299;SDS011;5195;48.562;9.192;2023-04-22T12:38:38;2.10;;;1.87;;
10299;SDS011;5195;48.562;9.192;2023-04-22T12:41:04;2.20;;;1.70;;
10299;SDS011;5195;48.562;9.192;2023-04-22T12:43:30;2.20;;;2.00;;
10299;SDS011;5195;48.562;9.192;2023-04-22T12:45:55;3.17;;;1.75;;
10299;SDS011;5195;48.562;9.192;2023-04-22T12:48:21;2.60;;;1.70;;
10299;SDS011;5195;48.562;9.192;2023-04-22T12:50:47;4.97;;;1.70;;
10299;SDS011;5195;48.562;9.192;2023-04-22T12:53:15;2.37;;;2.03;;
10299;SDS011;5195;48.562;9.192;2023-04-22T12:55:40;2.87;;;1.90;;
10299;SDS011;5195;48.562;9.192;2023-04-22T12:58:06;1.87;;;1.77;;
10299;SDS011;5195;48.562;9.192;2023-04-22T13:00:32;2.10;;;2.00;;
10299;SDS011;5195;48.562;9.192;2023-04-22T13:02:57;2.42;;;2.00;;
10299;SDS011;5195;48.562;9.192;2023-04-22T13:05:24;2.00;;;1.90;;
10299;SDS011;5195;48.562;9.192;2023-04-22T13:07:50;1.80;;;1.70;;
10299;SDS011;5195;48.562;9.192;2023-04-22T13:10:17;3.57;;;1.70;;
10299;SDS011;5195;48.562;9.192;2023-04-22T13:12:45;15.23;;;3.10;;
10299;SDS011;5195;48.562;9.192;2023-04-22T13:15:11;2.00;;;1.90;;
10299;SDS011;5195;48.562;9.192;2023-04-22T13:17:36;2.12;;;1.92;;
10299;SDS011;5195;48.562;9.192;2023-04-22T13:20:03;4.20;;;1.85;;
10299;SDS011;5195;48.562;9.192;2023-04-22T13:22:28;2.00;;;1.80;;
10299;SDS011;5195;48.562;9.192;2023-04-22T13:24:54;2.10;;;1.90;;
10299;SDS011;5195;48.562;9.192;2023-04-22T13:27:19;3.07;;;1.83;;
10299;SDS011;5195;48.562;9.192;2023-04-22T13:29:45;2.00;;;1.90;;
10299;SDS011;5195;48.562;9.192;2023-04-22T13:32:11;2.07;;;1.73;;
10299;SDS011;5195;48.562;9.192;2023-04-22T13:34:37;5.57;;;2.70;;
10299;SDS011;5195;48.562;9.192;2023-04-22T13:37:02;6.37;;;2.60;;
10299;SDS011;5195;48.562;9.192;2023-04-22T13:39:29;1.80;;;1.70;;
10299;SDS011;5195;48.562;9.192;2023-04-22T13:41:54;4.17;;;2.03;;
10299;SDS011;5195;48.562;9.192;2023-04-22T13:44:21;3.33;;;2.00;;
10299;SDS011;5195;48.562;9.192;2023-04-22T13:46:48;2.30;;;1.60;;
10299;SDS011;5195;48.562;9.192;2023-04-22T13:49:13;2.40;;;1.85;;
10299;SDS011;5195;48.562;9.192;2023-04-22T13:51:39;2.25;;;2.05;;
10299;SDS011;5195;48.562;9.192;2023-04-22T13:54:04;2.03;;;1.67;;
10299;SDS011;5195;48.562;9.192;2023-04-22T13:56:30;1.97;;;1.87;;
10299;SDS011;5195;48.562;9.192;2023-04-22T13:58:56;3.00;;;1.90;;
10299;SDS011;5195;48.562;9.192;2023-04-22T14:01:22;2.60;;;1.80;;
10299;SDS011;5195;48.562;9.192;2023-04-22T14:03:48;3.13;;;1.90;;
10299;SDS011;5195;48.562;9.192;2023-04-22T14:06:13;2.03;;;1.90;;
10299;SDS011;5195;48.562;9.192;2023-04-22T14:08:40;1.87;;;1.70;;
10299;SDS011;5195;48.562;9.192;2023-04-22T14:11:05;2.73;;;1.77;;
10299;SDS011;5195;48.562;9.192;2023-04-22T14:13:31;3.42;;;1.80;;
10299;SDS011;5195;48.562;9.192;2023-04-22T14:15:56;2.70;;;2.03;;
10299;SDS011;5195;48.562;9.192;2023-04-22T14:18:22;2.65;;;2.08;;
10299;SDS011;5195;48.562;9.192;2023-04-22T14:20:48;1.97;;;1.87;;
10299;SDS011;5195;48.562;9.192;2023-04-22T14:23:14;4.35;;;2.08;;
10299;SDS011;5195;48.562;9.192;2023-04-22T14:25:42;2.27;;;1.80;;
10299;SDS011;5195;48.562;9.192;2023-04-22T14:28:08;2.47;;;2.28;;
10299;SDS011;5195;48.562;9.192;2023-04-22T14:30:35;1.93;;;1.83;;
10299;SDS011;5195;48.562;9.192;2023-04-22T14:33:01;3.00;;;2.00;;
10299;SDS011;5195;48.562;9.192;2023-04-22T14:35:26;2.80;;;2.20;;
10299;SDS011;5195;48.562;9.192;2023-04-22T14:37:53;2.60;;;2.00;;
10299;SDS011;5195;48.562;9.192;2023-04-22T14:40:20;2.43;;;2.13;;
10299;SDS011;5195;48.562;9.192;2023-04-22T14:42:45;2.10;;;1.90;;
10299;SDS011;5195;48.562;9.192;2023-04-22T14:45:11;2.30;;;2.10;;
10299;SDS011;5195;48.562;9.192;2023-04-22T14:47:38;3.33;;;2.00;;
10299;SDS011;5195;48.562;9.192;2023-04-22T14:50:03;2.20;;;1.93;;
10299;SDS011;5195;48.562;9.192;2023-04-22T14:52:30;2.60;;;1.92;;
10299;SDS011;5195;48.562;9.192;2023-04-22T14:54:55;2.47;;;1.87;;
10299;SDS011;5195;48.562;9.192;2023-04-22T14:57:21;2.67;;;2.13;;
10299;SDS011;5195;48.562;9.192;2023-04-22T14:59:47;2.57;;;1.90;;
10299;SDS011;5195;48.562;9.192;2023-04-22T15:02:14;1.93;;;1.70;;
10299;SDS011;5195;48.562;9.192;2023-04-22T15:04:39;7.83;;;1.80;;
10299;SDS011;5195;48.562;9.192;2023-04-22T15:07:05;1.90;;;1.70;;
10299;SDS011;5195;48.562;9.192;2023-04-22T15:09:31;2.58;;;1.90;;
10299;SDS011;5195;48.562;9.192;2023-04-22T15:11:57;2.33;;;1.87;;
10299;SDS011;5195;48.562;9.192;2023-04-22T15:14:23;2.17;;;2.08;;
10299;SDS011;5195;48.562;9.192;2023-04-22T15:16:49;1.63;;;1.53;;
10299;SDS011;5195;48.562;9.192;2023-04-22T15:19:14;2.17;;;1.87;;
10299;SDS011;5195;48.562;9.192;2023-04-22T15:21:40;1.70;;;1.60;;